Time;durP1;ratioP1;P1;durP2;ratioP2;P2;SDS_P1;SDS_P2;PMS_P1;PMS_P2;Temp;Humidity;BMP_temperature;BMP_pressure;BME280_temperature;BME280_humidity;BME280_pressure;Samples;Min_cycle;Max_cycle;Signal;HPM_P1;HPM_P2
2021/05/29 00:00:15;;;;;;;0.10;0.10;;;15.50;76.80;;;;;;6244230;23;20070;-76
2021/05/29 00:02:40;;;;;;;;;;;15.50;77.20;;;;;;6243883;23;20107;-75
2021/05/29 00:05:08;;;;;;;0.10;0.10;;;15.50;76.90;;;;;;6244162;22;19933;-75
2021/05/29 00:07:34;;;;;;;0.10;0.10;;;15.50;77.50;;;;;;6216696;22;20163;-75
2021/05/29 00:10:00;;;;;;;0.10;0.10;;;15.50;76.60;;;;;;6244259;23;20436;-76
2021/05/29 00:12:25;;;;;;;0.10;0.10;;;15.50;76.90;;;;;;6243561;22;20423;-76
2021/05/29 00:14:53;;;;;;;0.10;0.10;;;15.50;76.70;;;;;;6217242;22;20012;-76
2021/05/29 00:17:19;;;;;;;;;;;15.50;76.90;;;;;;6243875;22;20008;-76
2021/05/29 00:19:45;;;;;;;1.00;0.40;;;15.40;77.00;;;;;;6244057;22;19900;-76
2021/05/29 00:22:10;;;;;;;0.10;0.10;;;15.40;77.00;;;;;;6216499;23;20427;-76
2021/05/29 00:24:36;;;;;;;0.10;0.10;;;15.40;76.70;;;;;;6244106;22;20075;-76
2021/05/29 00:27:03;;;;;;;0.00;0.00;;;15.40;77.60;;;;;;6243696;22;20383;-77
2021/05/29 00:29:28;;;;;;;0.10;0.10;;;15.40;77.30;;;;;;6243814;22;20246;-77
2021/05/29 00:31:54;;;;;;;0.10;0.10;;;15.40;78.10;;;;;;6243048;22;20004;-77
2021/05/29 00:34:20;;;;;;;0.10;0.10;;;15.30;77.30;;;;;;6243933;23;20004;-77
2021/05/29 00:36:46;;;;;;;0.00;0.00;;;15.30;78.30;;;;;;6216693;23;20019;-77
2021/05/29 00:39:12;;;;;;;0.10;0.10;;;15.40;78.80;;;;;;6243538;22;20034;-77
2021/05/29 00:41:37;;;;;;;0.10;0.10;;;15.40;78.30;;;;;;6243589;22;20087;-77
2021/05/29 00:44:03;;;;;;;0.00;0.00;;;15.30;78.00;;;;;;6243490;22;20031;-77
2021/05/29 00:46:30;;;;;;;0.10;0.10;;;15.30;78.00;;;;;;6243756;22;20004;-76
2021/05/29 00:48:56;;;;;;;0.10;0.10;;;15.30;78.00;;;;;;6243010;22;20058;-78
2021/05/29 00:51:21;;;;;;;0.10;0.10;;;15.30;77.50;;;;;;6243835;22;20670;-77
2021/05/29 00:53:48;;;;;;;0.10;0.10;;;15.30;78.40;;;;;;6215973;23;20020;-75
2021/05/29 00:56:14;;;;;;;0.10;0.10;;;15.30;77.90;;;;;;6244049;22;20027;-77
2021/05/29 00:58:41;;;;;;;0.10;0.10;;;15.30;78.10;;;;;;6243140;23;20000;-77
2021/05/29 01:01:07;;;;;;;0.05;0.05;;;15.30;78.20;;;;;;6243659;22;19997;-77
2021/05/29 01:03:37;;;;;;;0.10;0.10;;;15.20;78.40;;;;;;6242966;22;20050;-76
2021/05/29 01:06:05;;;;;;;0.10;0.10;;;15.30;79.40;;;;;;6243722;23;20000;-76
2021/05/29 01:08:30;;;;;;;0.20;0.20;;;15.20;78.90;;;;;;6216185;23;20004;-79
2021/05/29 01:10:56;;;;;;;0.10;0.10;;;15.30;78.70;;;;;;6243472;22;20071;-77
2021/05/29 01:13:27;;;;;;;0.10;0.10;;;15.20;78.30;;;;;;6242933;23;20008;-77
2021/05/29 01:15:56;;;;;;;0.00;0.00;;;15.20;79.10;;;;;;6243350;22;20003;-76
2021/05/29 01:18:22;;;;;;;0.10;0.10;;;15.20;79.20;;;;;;6215898;23;20008;-76
2021/05/29 01:20:48;;;;;;;0.10;0.10;;;15.20;79.80;;;;;;6216534;22;20082;-76
2021/05/29 01:23:14;;;;;;;0.10;0.10;;;15.20;79.90;;;;;;6243007;22;20012;-76
2021/05/29 01:25:47;;;;;;;0.00;0.00;;;15.20;80.50;;;;;;6243463;22;20075;-76
2021/05/29 01:28:14;;;;;;;0.10;0.10;;;15.20;79.90;;;;;;6215933;23;20004;-76
2021/05/29 01:30:44;;;;;;;0.10;0.10;;;15.20;80.20;;;;;;6216511;23;20332;-77
2021/05/29 01:33:16;;;;;;;0.10;0.10;;;15.20;81.20;;;;;;6242518;22;20520;-77
2021/05/29 01:35:45;;;;;;;0.10;0.10;;;15.10;81.40;;;;;;6243728;22;20058;-75
2021/05/29 01:38:14;;;;;;;0.10;0.10;;;15.10;81.70;;;;;;6242929;23;20035;-78
2021/05/29 01:40:40;;;;;;;0.10;0.10;;;15.10;82.00;;;;;;6243474;23;20427;-78
2021/05/29 01:43:11;;;;;;;0.05;0.05;;;15.10;82.60;;;;;;6215863;23;20016;-78
2021/05/29 01:45:37;;;;;;;0.10;0.10;;;15.10;83.10;;;;;;6243265;22;19996;-78
2021/05/29 01:48:05;;;;;;;0.10;0.10;;;15.10;83.40;;;;;;6242353;22;20004;-77
2021/05/29 01:50:32;;;;;;;0.10;0.10;;;15.10;83.10;;;;;;6243098;22;20079;-78
2021/05/29 01:53:03;;;;;;;0.10;0.10;;;15.10;83.70;;;;;;6215681;23;20031;-78
2021/05/29 01:55:31;;;;;;;0.10;0.10;;;15.10;83.50;;;;;;6243332;22;20577;-78
2021/05/29 01:57:59;;;;;;;0.10;0.10;;;15.10;83.70;;;;;;6242509;22;20335;-78
2021/05/29 02:00:25;;;;;;;;;;;15.00;84.30;;;;;;6243699;22;20070;-78
2021/05/29 02:02:52;;;;;;;0.10;0.10;;;15.00;84.90;;;;;;6242487;22;19954;-78
2021/05/29 02:05:23;;;;;;;0.10;0.10;;;15.00;84.30;;;;;;6216545;23;20035;-78
2021/05/29 02:07:50;;;;;;;0.10;0.10;;;15.00;85.20;;;;;;6215537;23;20767;-78
2021/05/29 02:10:20;;;;;;;0.10;0.10;;;15.00;85.10;;;;;;6243252;22;20000;-78
2021/05/29 02:12:48;;;;;;;0.10;0.10;;;15.00;85.10;;;;;;6215625;23;20058;-78
2021/05/29 02:15:20;;;;;;;0.10;0.10;;;15.00;85.30;;;;;;6216452;22;20084;-78
2021/05/29 02:17:49;;;;;;;0.00;0.00;;;15.00;85.10;;;;;;6215358;22;20070;-78
2021/05/29 02:20:16;;;;;;;0.00;0.00;;;14.90;86.10;;;;;;6243243;23;20316;-77
2021/05/29 02:22:42;;;;;;;0.10;0.10;;;14.90;85.10;;;;;;6242519;22;20424;-77
2021/05/29 02:25:09;;;;;;;0.10;0.10;;;14.90;85.70;;;;;;6243171;23;20244;-78
2021/05/29 02:27:35;;;;;;;0.10;0.10;;;14.90;86.20;;;;;;6242631;22;19996;-78
2021/05/29 02:30:02;;;;;;;0.10;0.10;;;14.90;86.70;;;;;;6243039;23;20010;-77
2021/05/29 02:32:28;;;;;;;0.10;0.10;;;14.90;86.40;;;;;;6241738;23;20011;-77
2021/05/29 02:34:54;;;;;;;0.00;0.00;;;14.90;86.30;;;;;;6243155;23;20012;-78
2021/05/29 02:37:19;;;;;;;0.20;0.20;;;14.90;86.30;;;;;;6242822;22;20378;-78
2021/05/29 02:39:45;;;;;;;0.10;0.10;;;14.90;86.90;;;;;;6243040;22;20335;-78
2021/05/29 02:42:11;;;;;;;0.10;0.10;;;14.90;86.50;;;;;;6242725;22;20001;-77
2021/05/29 02:44:37;;;;;;;0.00;0.00;;;14.80;86.80;;;;;;6216325;23;20032;-77
2021/05/29 02:47:03;;;;;;;0.10;0.10;;;14.90;86.30;;;;;;6242314;23;20024;-77
2021/05/29 02:49:28;;;;;;;0.10;0.10;;;14.80;86.60;;;;;;6215852;23;20085;-77
2021/05/29 02:51:54;;;;;;;0.10;0.10;;;14.80;86.30;;;;;;6242477;22;20007;-77
2021/05/29 02:54:22;;;;;;;0.00;0.00;;;14.80;87.50;;;;;;6216224;23;20103;-77
2021/05/29 02:56:48;;;;;;;0.10;0.10;;;14.80;86.60;;;;;;6243026;22;19996;-77
2021/05/29 02:59:14;;;;;;;0.10;0.10;;;14.90;87.30;;;;;;6242970;22;20004;-77
2021/05/29 03:01:39;;;;;;;0.00;0.00;;;14.80;87.30;;;;;;6216190;23;20000;-77
2021/05/29 03:04:05;;;;;;;0.03;0.03;;;14.80;87.80;;;;;;6244433;22;19996;-77
2021/05/29 03:06:31;;;;;;;0.10;0.10;;;14.80;87.40;;;;;;6217998;23;20031;-78
2021/05/29 03:08:58;;;;;;;0.03;0.03;;;14.80;87.10;;;;;;6243976;22;19999;-77
2021/05/29 03:11:24;;;;;;;;;;;14.80;87.80;;;;;;6245362;23;20026;-77
2021/05/29 03:13:49;;;;;;;0.10;0.10;;;14.80;88.10;;;;;;6244381;23;20318;-77
2021/05/29 03:16:15;;;;;;;0.10;0.10;;;14.70;88.20;;;;;;6244845;23;20035;-77
2021/05/29 03:18:41;;;;;;;0.10;0.10;;;14.80;87.90;;;;;;6244173;22;20027;-77
2021/05/29 03:21:06;;;;;;;0.10;0.10;;;14.80;89.30;;;;;;6244531;22;20016;-78
2021/05/29 03:23:32;;;;;;;0.10;0.10;;;14.80;88.50;;;;;;6217126;23;20077;-77
2021/05/29 03:25:58;;;;;;;0.10;0.10;;;14.80;88.20;;;;;;6244630;23;20100;-77
2021/05/29 03:28:23;;;;;;;0.10;0.10;;;14.90;88.20;;;;;;6244114;23;20075;-78
2021/05/29 03:30:49;;;;;;;0.10;0.10;;;14.90;88.60;;;;;;6244552;22;20070;-78
2021/05/29 03:33:15;;;;;;;0.10;0.10;;;14.90;89.20;;;;;;6243847;23;20015;-78
2021/05/29 03:35:41;;;;;;;0.10;0.10;;;15.00;89.10;;;;;;6244549;22;19993;-77
2021/05/29 03:38:07;;;;;;;0.10;0.10;;;14.90;88.60;;;;;;6243723;23;20011;-76
2021/05/29 03:40:33;;;;;;;0.05;0.05;;;14.90;88.20;;;;;;6217649;23;20004;-76
2021/05/29 03:42:59;;;;;;;0.10;0.10;;;15.00;88.50;;;;;;6217041;23;20000;-76
2021/05/29 03:45:25;;;;;;;0.10;0.10;;;15.00;88.90;;;;;;6217534;23;20138;-77
2021/05/29 03:47:51;;;;;;;0.10;0.10;;;15.00;89.10;;;;;;6243818;22;20054;-76
2021/05/29 03:50:20;;;;;;;0.10;0.10;;;15.00;89.30;;;;;;6244536;22;20011;-76
2021/05/29 03:52:46;;;;;;;0.17;0.17;;;15.10;88.90;;;;;;6243711;23;20482;-76
2021/05/29 03:55:12;;;;;;;0.10;0.10;;;15.10;88.30;;;;;;6244336;23;20001;-77
2021/05/29 03:57:38;;;;;;;0.10;0.10;;;15.20;88.80;;;;;;6217053;23;20039;-79
2021/05/29 04:00:06;;;;;;;0.10;0.10;;;15.30;88.20;;;;;;6244340;22;20003;-76
2021/05/29 04:02:31;;;;;;;0.10;0.10;;;15.40;88.30;;;;;;6216570;22;20061;-77
2021/05/29 04:04:57;;;;;;;0.00;0.00;;;15.40;87.80;;;;;;6244202;22;20083;-77
2021/05/29 04:07:23;;;;;;;0.10;0.10;;;15.50;88.00;;;;;;6243948;22;20458;-78
2021/05/29 04:09:48;;;;;;;0.10;0.10;;;15.50;87.90;;;;;;6244393;23;20434;-77
2021/05/29 04:12:14;;;;;;;0.10;0.10;;;15.60;87.50;;;;;;6243426;22;20008;-77
2021/05/29 04:14:40;;;;;;;0.10;0.10;;;15.60;87.70;;;;;;6244075;22;20007;-77
2021/05/29 04:17:05;;;;;;;0.10;0.10;;;15.60;87.40;;;;;;6243606;22;20035;-77
2021/05/29 04:19:31;;;;;;;0.10;0.10;;;15.70;87.00;;;;;;6243940;23;20446;-77
2021/05/29 04:21:57;;;;;;;0.10;0.10;;;15.80;86.80;;;;;;6243634;22;20001;-76
2021/05/29 04:24:23;;;;;;;0.10;0.10;;;15.80;87.00;;;;;;6244096;22;20004;-77
2021/05/29 04:26:48;;;;;;;0.00;0.00;;;15.90;86.40;;;;;;6243964;22;20042;-77
2021/05/29 04:29:14;;;;;;;0.10;0.10;;;15.90;86.90;;;;;;6243824;22;20427;-77
2021/05/29 04:31:40;;;;;;;0.00;0.00;;;16.00;86.30;;;;;;6243435;23;19996;-77
2021/05/29 04:34:05;;;;;;;0.10;0.10;;;16.00;86.40;;;;;;6243685;23;20008;-77
2021/05/29 04:36:31;;;;;;;0.10;0.10;;;16.00;85.80;;;;;;6217120;22;20003;-76
2021/05/29 04:38:57;;;;;;;0.10;0.10;;;16.10;85.50;;;;;;6243452;23;20027;-76
2021/05/29 04:41:22;;;;;;;0.10;0.10;;;16.20;86.30;;;;;;6244187;23;20308;-77
2021/05/29 04:43:48;;;;;;;0.10;0.10;;;16.20;85.10;;;;;;6216740;23;20008;-76
2021/05/29 04:46:14;;;;;;;0.03;0.03;;;16.30;85.10;;;;;;6243856;23;20000;-78
2021/05/29 04:48:39;;;;;;;0.10;0.10;;;16.30;84.90;;;;;;6243289;22;20036;-76
2021/05/29 04:51:15;;;;;;;0.10;0.10;;;16.40;85.40;;;;;;6243612;23;20408;-77
2021/05/29 04:53:46;;;;;;;0.10;0.10;;;16.40;83.80;;;;;;6243038;22;20016;-77
2021/05/29 04:56:13;;;;;;;0.10;0.10;;;16.50;85.10;;;;;;6243943;22;20427;-76
2021/05/29 04:58:38;;;;;;;0.10;0.10;;;16.50;84.60;;;;;;6216548;23;20014;-77
2021/05/29 05:01:10;;;;;;;0.00;0.00;;;16.60;84.50;;;;;;6243495;22;20075;-77
2021/05/29 05:03:36;;;;;;;0.10;0.10;;;16.70;84.50;;;;;;6242549;22;20470;-77
2021/05/29 05:06:02;;;;;;;0.10;0.10;;;16.70;84.30;;;;;;6243844;22;20031;-77
2021/05/29 05:08:28;;;;;;;0.03;0.03;;;16.80;84.20;;;;;;6243059;22;19999;-77
2021/05/29 05:10:57;;;;;;;0.10;0.10;;;16.90;85.00;;;;;;6243691;22;20353;-77
2021/05/29 05:13:24;;;;;;;0.10;0.10;;;17.00;84.00;;;;;;6243162;22;20019;-78
2021/05/29 05:15:51;;;;;;;0.10;0.10;;;16.90;83.10;;;;;;6216831;23;20435;-77
2021/05/29 05:18:17;;;;;;;;;;;17.10;84.50;;;;;;6243089;22;20332;-79
2021/05/29 05:20:43;;;;;;;0.10;0.10;;;17.10;83.90;;;;;;6217121;22;19906;-79
2021/05/29 05:23:09;;;;;;;0.00;0.00;;;17.20;83.70;;;;;;6243058;23;19996;-77
2021/05/29 05:25:35;;;;;;;0.10;0.10;;;17.30;83.10;;;;;;6216451;23;20014;-78
2021/05/29 05:28:00;;;;;;;0.10;0.10;;;17.30;82.20;;;;;;6242961;22;20171;-78
2021/05/29 05:30:27;;;;;;;0.10;0.10;;;17.40;82.30;;;;;;6243418;22;19997;-78
2021/05/29 05:32:55;;;;;;;0.10;0.10;;;17.50;82.30;;;;;;6215593;23;20339;-78
2021/05/29 05:35:22;;;;;;;0.10;0.10;;;17.50;82.90;;;;;;6243573;22;20007;-76
2021/05/29 05:37:48;;;;;;;0.10;0.10;;;17.60;81.60;;;;;;6243009;22;20491;-77
2021/05/29 05:40:16;;;;;;;1.75;1.65;;;17.60;82.20;;;;;;6243267;22;20034;-77
2021/05/29 05:42:42;;;;;;;0.10;0.10;;;17.70;82.30;;;;;;6242810;23;20399;-76
2021/05/29 05:45:08;;;;;;;0.00;0.00;;;17.70;82.00;;;;;;6216695;23;20094;-78
2021/05/29 05:47:34;;;;;;;0.00;0.00;;;17.80;82.40;;;;;;6242478;22;20016;-77
2021/05/29 05:50:00;;;;;;;0.00;0.00;;;17.90;82.50;;;;;;6243535;22;20004;-77
2021/05/29 05:52:26;;;;;;;0.00;0.00;;;18.00;82.10;;;;;;6242708;22;20149;-82
2021/05/29 05:54:51;;;;;;;0.10;0.10;;;18.10;81.30;;;;;;6243341;23;20028;-78
2021/05/29 05:57:18;;;;;;;0.10;0.10;;;18.10;81.50;;;;;;6242596;22;20026;-78
2021/05/29 05:59:44;;;;;;;0.10;0.10;;;18.20;81.50;;;;;;6243378;22;20004;-78
2021/05/29 06:02:10;;;;;;;0.00;0.00;;;18.30;80.70;;;;;;6242674;23;19996;-78
2021/05/29 06:04:36;;;;;;;0.10;0.10;;;18.30;81.20;;;;;;6243325;23;20004;-78
2021/05/29 06:07:01;;;;;;;0.10;0.10;;;18.40;81.10;;;;;;6242982;23;20000;-78
2021/05/29 06:09:28;;;;;;;0.00;0.00;;;18.40;80.80;;;;;;6216346;23;20342;-81
2021/05/29 06:11:54;;;;;;;0.10;0.10;;;18.40;81.30;;;;;;6242816;22;20000;-79
2021/05/29 06:19:49;;;;;;;0.10;0.10;;;18.40;81.70;;;;;;6243236;22;20011;-81
2021/05/29 06:22:14;;;;;;;0.10;0.10;;;18.40;82.30;;;;;;6215892;23;20008;-80
2021/05/29 06:24:40;;;;;;;0.00;0.00;;;18.40;81.80;;;;;;6243194;22;20000;-80
2021/05/29 06:27:07;;;;;;;0.10;0.10;;;18.40;82.40;;;;;;6215810;22;20008;-78
2021/05/29 06:29:32;;;;;;;0.10;0.10;;;18.40;84.60;;;;;;6216613;23;20304;-82
2021/05/29 06:31:58;;;;;;;0.00;0.00;;;18.50;85.90;;;;;;6242670;22;20115;-80
2021/05/29 06:34:24;;;;;;;0.00;0.00;;;18.60;85.10;;;;;;6243086;22;20008;-81
2021/05/29 06:36:51;;;;;;;0.10;0.10;;;18.60;83.60;;;;;;6244534;22;20031;-79
2021/05/29 06:39:17;;;;;;;0.10;0.10;;;18.70;86.60;;;;;;6244687;22;20001;-79
2021/05/29 06:41:43;;;;;;;0.10;0.10;;;18.80;84.00;;;;;;6244986;23;20000;-78
2021/05/29 06:44:10;;;;;;;0.10;0.10;;;18.80;85.00;;;;;;6245000;22;20027;-81
2021/05/29 06:46:36;;;;;;;0.10;0.10;;;19.00;82.30;;;;;;6245287;22;20024;-80
2021/05/29 06:49:03;;;;;;;0.10;0.10;;;19.10;81.90;;;;;;6244322;22;20075;-77
2021/05/29 06:54:02;;;;;;;0.10;0.10;;;19.50;81.80;;;;;;6246100;22;20020;-78
2021/05/29 06:59:14;;;;;;;0.10;0.10;;;19.90;80.40;;;;;;6183064;23;20031;-80
2021/05/29 07:01:39;;;;;;;0.10;0.10;;;20.10;79.70;;;;;;6244623;23;20046;-79
2021/05/29 07:04:05;;;;;;;0.10;0.10;;;20.30;79.50;;;;;;6218014;23;20007;-79
2021/05/29 07:06:31;;;;;;;0.10;0.10;;;20.40;78.80;;;;;;6244843;22;20024;-79
2021/05/29 07:08:57;;;;;;;0.10;0.10;;;20.60;78.80;;;;;;6217481;22;20015;-78
2021/05/29 07:11:23;;;;;;;0.15;0.15;;;20.80;76.40;;;;;;6244945;22;19996;-78
2021/05/29 07:13:49;;;;;;;0.10;0.10;;;20.90;74.60;;;;;;6244152;22;20141;-79
2021/05/29 07:16:16;;;;;;;0.00;0.00;;;21.10;73.90;;;;;;6244528;23;20026;-79
2021/05/29 07:18:46;;;;;;;0.10;0.10;;;21.20;73.60;;;;;;6244307;23;20000;-79
2021/05/29 07:21:16;;;;;;;0.10;0.10;;;21.30;72.00;;;;;;6244995;22;20091;-81
2021/05/29 07:23:43;;;;;;;0.10;0.10;;;21.30;73.50;;;;;;6244510;22;20035;-82
2021/05/29 07:26:09;;;;;;;0.10;0.10;;;21.30;72.70;;;;;;6244626;23;20050;-82
2021/05/29 07:28:35;;;;;;;0.10;0.10;;;21.20;73.80;;;;;;6217564;23;20035;-82
2021/05/29 07:31:02;;;;;;;0.10;0.10;;;21.20;71.50;;;;;;6245228;22;20000;-85
2021/05/29 07:33:28;;;;;;;0.10;0.10;;;21.10;74.40;;;;;;6243512;22;20012;-81
2021/05/29 07:35:54;;;;;;;0.10;0.10;;;21.10;72.20;;;;;;6218133;23;20300;-86
2021/05/29 07:38:20;;;;;;;0.10;0.10;;;21.20;71.10;;;;;;6243837;23;20000;-80
2021/05/29 07:40:46;;;;;;;0.10;0.10;;;21.40;72.50;;;;;;6244771;22;20258;-81
2021/05/29 07:43:12;;;;;;;0.10;0.10;;;21.40;72.90;;;;;;6244403;22;20000;-82
2021/05/29 07:45:37;;;;;;;0.10;0.10;;;21.50;73.20;;;;;;6244507;22;20014;-80
2021/05/29 07:48:04;;;;;;;0.10;0.10;;;21.60;72.40;;;;;;6243118;23;20071;-79
2021/05/29 07:50:29;;;;;;;0.10;0.10;;;21.70;73.30;;;;;;6244746;22;20071;-78
2021/05/29 07:52:55;;;;;;;0.28;0.28;;;21.80;72.60;;;;;;6198189;23;20243;-78
2021/05/29 07:55:21;;;;;;;0.10;0.10;;;22.00;72.60;;;;;;6214169;23;20025;-78
2021/05/29 07:57:47;;;;;;;0.10;0.10;;;22.20;72.10;;;;;;6213807;23;20428;-79
2021/05/29 08:00:16;;;;;;;0.10;0.10;;;22.40;69.90;;;;;;6213967;23;19997;-78
2021/05/29 08:02:42;;;;;;;0.10;0.10;;;22.70;71.60;;;;;;6213495;23;20003;-77
2021/05/29 08:05:19;;;;;;;0.10;0.10;;;22.70;70.80;;;;;;6214381;23;20083;-80
2021/05/29 08:07:45;;;;;;;0.10;0.10;;;22.90;70.40;;;;;;6213637;23;20609;-80
2021/05/29 08:10:12;;;;;;;0.10;0.10;;;23.00;69.10;;;;;;6215619;23;20331;-80
2021/05/29 08:12:39;;;;;;;0.10;0.10;;;22.90;69.40;;;;;;6213339;23;20349;-79
2021/05/29 08:15:07;;;;;;;0.10;0.10;;;23.00;70.50;;;;;;6213942;23;20012;-81
2021/05/29 08:17:32;;;;;;;0.10;0.10;;;23.30;70.80;;;;;;6213407;23;20132;-80
2021/05/29 08:19:58;;;;;;;1.92;1.80;;;23.50;66.60;;;;;;6213754;23;20000;-82
2021/05/29 08:22:24;;;;;;;0.10;0.10;;;23.60;65.70;;;;;;6213342;23;20001;-81
2021/05/29 08:24:50;;;;;;;0.10;0.10;;;23.80;66.40;;;;;;6214081;23;20001;-81
2021/05/29 08:27:16;;;;;;;0.10;0.10;;;24.10;62.70;;;;;;6213409;23;20382;-80
2021/05/29 08:29:42;;;;;;;0.10;0.10;;;24.10;60.90;;;;;;6213925;23;20512;-82
2021/05/29 08:32:08;;;;;;;0.10;0.10;;;24.40;61.70;;;;;;6213167;23;20000;-81
2021/05/29 08:34:34;;;;;;;0.00;0.00;;;24.50;61.10;;;;;;6213572;23;20000;-79
2021/05/29 08:36:59;;;;;;;0.10;0.10;;;24.70;58.80;;;;;;6213227;23;20016;-79
2021/05/29 08:39:25;;;;;;;0.10;0.10;;;24.60;59.20;;;;;;6213775;23;20005;-81
2021/05/29 08:41:53;;;;;;;0.10;0.10;;;24.80;58.60;;;;;;6213419;23;20071;-81
2021/05/29 08:44:19;;;;;;;0.10;0.10;;;24.90;57.90;;;;;;6213259;23;20259;-81
2021/05/29 08:46:44;;;;;;;0.10;0.10;;;25.00;56.40;;;;;;6213174;23;20007;-81
2021/05/29 08:49:10;;;;;;;0.10;0.10;;;25.10;56.40;;;;;;6213413;23;19997;-80
2021/05/29 08:51:36;;;;;;;0.10;0.10;;;24.90;56.50;;;;;;6215276;22;20075;-81
2021/05/29 08:54:02;;;;;;;0.10;0.10;;;24.90;60.50;;;;;;6243417;23;20040;-79
2021/05/29 08:56:28;;;;;;;0.43;0.43;;;24.70;56.50;;;;;;6243940;22;20055;-81
2021/05/29 08:58:54;;;;;;;;;;;24.90;59.00;;;;;;6243172;22;20010;-80
2021/05/29 09:01:21;;;;;;;0.10;0.10;;;25.10;60.90;;;;;;6244228;22;19978;-80
2021/05/29 09:03:48;;;;;;;;;;;25.40;58.20;;;;;;6243357;23;20004;-80
2021/05/29 09:06:31;;;;;;;0.10;0.10;;;25.60;56.00;;;;;;6243880;23;19921;-80
2021/05/29 09:08:57;;;;;;;0.10;0.10;;;25.40;55.30;;;;;;6243327;22;20542;-79
2021/05/29 09:11:39;;;;;;;0.13;0.13;;;24.80;58.40;;;;;;6243499;22;20004;-80
2021/05/29 09:14:32;;;;;;;0.10;0.10;;;24.30;57.70;;;;;;6243410;22;20008;-78
2021/05/29 09:17:18;;;;;;;0.10;0.10;;;24.00;59.10;;;;;;6242945;23;20007;-80
2021/05/29 09:19:57;;;;;;;1.90;0.82;;;23.60;63.50;;;;;;6243349;22;20000;-81
2021/05/29 09:22:39;;;;;;;1.40;0.82;;;23.10;69.10;;;;;;6243039;22;20003;-82
2021/05/29 09:25:19;;;;;;;0.32;0.32;;;22.70;68.90;;;;;;6243827;22;20493;-80
2021/05/29 09:28:00;;;;;;;0.10;0.10;;;22.60;72.30;;;;;;6243141;22;20083;-80
2021/05/29 09:30:48;;;;;;;0.80;0.80;;;22.80;73.00;;;;;;6243425;23;20308;-79
2021/05/29 09:33:14;;;;;;;0.20;0.20;;;22.90;70.30;;;;;;6215671;22;20331;-80
2021/05/29 09:35:41;;;;;;;0.43;0.40;;;23.20;72.90;;;;;;6243846;23;20007;-80
2021/05/29 09:38:06;;;;;;;0.10;0.10;;;23.30;72.00;;;;;;6242574;22;20050;-79
2021/05/29 09:40:33;;;;;;;0.10;0.10;;;23.50;71.00;;;;;;6243671;22;20078;-80
2021/05/29 09:43:05;;;;;;;0.40;0.40;;;23.50;73.90;;;;;;6242843;22;20003;-80
2021/05/29 09:45:31;;;;;;;0.98;0.40;;;23.60;62.60;;;;;;6243721;23;20215;-82
2021/05/29 09:48:14;;;;;;;0.10;0.10;;;23.50;64.10;;;;;;6215419;23;20004;-80
2021/05/29 09:50:58;;;;;;;5.25;2.30;;;23.50;64.70;;;;;;6243438;22;20006;-81
2021/05/29 09:53:26;;;;;;;0.88;0.30;;;23.30;67.60;;;;;;6241582;22;20338;-80
2021/05/29 09:55:52;;;;;;;1.02;0.70;;;22.90;67.50;;;;;;6243583;22;20007;-79
2021/05/29 09:58:18;;;;;;;2.58;1.05;;;22.50;68.50;;;;;;6215609;23;20090;-79
2021/05/29 10:00:46;;;;;;;0.57;0.57;;;22.20;69.60;;;;;;6243569;22;20443;-79
2021/05/29 10:03:12;;;;;;;0.52;0.52;;;22.00;73.30;;;;;;6242569;23;20007;-81
2021/05/29 10:05:41;;;;;;;1.27;0.60;;;21.90;74.60;;;;;;6243499;22;20001;-81
2021/05/29 10:08:12;;;;;;;0.47;0.40;;;21.90;74.60;;;;;;6242808;22;20092;-81
2021/05/29 10:10:39;;;;;;;0.55;0.55;;;22.00;75.30;;;;;;6243770;23;20046;-80
2021/05/29 10:13:05;;;;;;;1.48;0.65;;;22.20;78.90;;;;;;6244562;22;20386;-81
2021/05/29 10:15:31;;;;;;;15.35;1.02;;;22.20;78.50;;;;;;6217886;23;20031;-81
2021/05/29 10:17:58;;;;;;;0.65;0.50;;;22.00;74.10;;;;;;6243790;22;19996;-81
2021/05/29 10:20:24;;;;;;;0.22;0.22;;;22.10;73.40;;;;;;6245719;22;19996;-82
2021/05/29 10:22:50;;;;;;;1.27;1.23;;;22.50;69.30;;;;;;6244556;22;20007;-81
2021/05/29 10:25:19;;;;;;;1.57;0.40;;;22.60;72.80;;;;;;6218377;23;20474;-81
2021/05/29 10:27:51;;;;;;;0.30;0.22;;;22.50;69.70;;;;;;6244873;22;20027;-81
2021/05/29 10:30:19;;;;;;;2.83;0.25;;;22.40;70.00;;;;;;6245146;23;20020;-79
2021/05/29 10:33:11;;;;;;;0.10;0.10;;;22.60;70.30;;;;;;6244149;22;20036;-80
2021/05/29 10:35:38;;;;;;;0.28;0.28;;;22.70;64.80;;;;;;6245747;22;20010;-81
2021/05/29 10:38:04;;;;;;;2.97;2.40;;;22.70;64.90;;;;;;6244390;22;20007;-81
2021/05/29 10:40:33;;;;;;;3.72;1.50;;;22.70;68.50;;;;;;6218321;23;19996;-81
2021/05/29 10:43:11;;;;;;;2.28;1.23;;;22.70;60.00;;;;;;6218075;23;20324;-80
2021/05/29 10:45:39;;;;;;;0.35;0.35;;;22.50;60.30;;;;;;6245125;22;20004;-81
2021/05/29 10:48:15;;;;;;;0.30;0.30;;;22.50;61.50;;;;;;6216819;22;20470;-79
2021/05/29 10:53:44;;;;;;;2.33;1.48;;;22.60;60.00;;;;;;6244302;22;20357;-80
2021/05/29 10:56:19;;;;;;;1.35;1.25;;;22.80;58.70;;;;;;6245020;22;20046;-78
2021/05/29 10:58:59;;;;;;;2.75;1.15;;;22.80;61.20;;;;;;6244204;22;20014;-79
2021/05/29 11:01:53;;;;;;;3.22;1.80;;;22.80;56.80;;;;;;6245273;22;20007;-82
2021/05/29 11:04:19;;;;;;;2.28;1.60;;;22.90;58.90;;;;;;6189694;22;20028;-80
2021/05/29 11:06:54;;;;;;;1.40;0.98;;;22.70;58.00;;;;;;6244345;22;19996;-81
2021/05/29 11:09:26;;;;;;;1.40;0.70;;;22.40;59.70;;;;;;6245014;22;20011;-82
2021/05/29 11:11:56;;;;;;;1.40;1.30;;;22.50;58.50;;;;;;6244437;22;20000;-80
2021/05/29 11:14:26;;;;;;;1.88;1.38;;;22.50;58.20;;;;;;6244587;22;20099;-80
2021/05/29 11:16:53;;;;;;;0.90;0.47;;;22.40;55.70;;;;;;6244441;22;20004;-81
2021/05/29 11:19:33;;;;;;;0.10;0.10;;;22.10;57.70;;;;;;6244618;22;20031;-82
2021/05/29 11:22:03;;;;;;;18.90;4.50;;;22.40;59.80;;;;;;6244270;22;20001;-80
2021/05/29 11:24:38;;;;;;;1.25;0.85;;;22.60;58.10;;;;;;6244247;22;20000;-80
2021/05/29 11:27:06;;;;;;;2.80;1.40;;;22.70;57.50;;;;;;6243587;22;20087;-82
2021/05/29 11:30:02;;;;;;;0.55;0.47;;;22.90;56.60;;;;;;6218299;23;20150;-79
2021/05/29 11:35:27;;;;;;;2.55;1.20;;;23.60;55.90;;;;;;6245054;22;20008;-79
2021/05/29 11:38:06;;;;;;;3.90;1.95;;;23.70;54.20;;;;;;6243975;22;20004;-80
2021/05/29 11:40:45;;;;;;;0.32;0.32;;;23.80;54.30;;;;;;6244545;22;20000;-80
2021/05/29 11:43:12;;;;;;;0.10;0.10;;;23.80;54.30;;;;;;6243896;22;20000;-80
2021/05/29 11:45:38;;;;;;;1.95;0.95;;;24.30;53.00;;;;;;6244471;22;20091;-81
2021/05/29 11:48:06;;;;;;;2.10;1.27;;;24.60;53.00;;;;;;6216944;23;19996;-81
2021/05/29 11:50:32;;;;;;;0.10;0.10;;;24.80;53.70;;;;;;6244356;23;20238;-82
2021/05/29 11:52:58;;;;;;;0.80;0.70;;;24.80;52.00;;;;;;6243929;22;20008;-81
2021/05/29 11:55:24;;;;;;;0.32;0.30;;;24.50;50.70;;;;;;6244188;22;20006;-80
2021/05/29 11:58:01;;;;;;;0.28;0.28;;;24.70;49.70;;;;;;6244639;23;20000;-81
2021/05/29 12:00:29;;;;;;;;;;;24.60;51.00;;;;;;6244768;22;20012;-81
2021/05/29 12:02:55;;;;;;;0.20;0.20;;;24.20;54.20;;;;;;6243876;22;19900;-79
2021/05/29 12:05:22;;;;;;;0.65;0.47;;;25.90;49.30;;;;;;6244462;22;20003;-81
2021/05/29 12:08:01;;;;;;;0.65;0.65;;;26.60;46.60;;;;;;6243490;22;20436;-81
2021/05/29 12:10:47;;;;;;;0.60;0.60;;;28.10;46.10;;;;;;6244009;22;20000;-81
2021/05/29 12:13:28;;;;;;;0.40;0.40;;;29.90;40.50;;;;;;6243621;22;20346;-81
2021/05/29 12:15:59;;;;;;;2.72;0.65;;;29.50;41.40;;;;;;6244159;22;20058;-84
2021/05/29 12:18:36;;;;;;;0.38;0.38;;;29.60;38.80;;;;;;6243951;22;20592;-80
2021/05/29 12:21:02;;;;;;;0.20;0.20;;;30.50;40.50;;;;;;6217143;23;20011;-81
2021/05/29 12:23:28;;;;;;;0.10;0.10;;;33.40;39.00;;;;;;6243676;23;20075;-82
2021/05/29 12:25:54;;;;;;;0.20;0.20;;;33.60;36.20;;;;;;6244442;23;20082;-84
2021/05/29 12:28:21;;;;;;;0.30;0.30;;;34.30;34.00;;;;;;6243468;22;20046;-81
2021/05/29 12:30:49;;;;;;;0.30;0.30;;;33.80;32.90;;;;;;6244712;23;20004;-82
2021/05/29 12:33:21;;;;;;;0.95;0.45;;;33.50;33.00;;;;;;6216191;23;20505;-82
2021/05/29 12:35:46;;;;;;;1.20;0.82;;;34.60;32.50;;;;;;6248793;23;20012;-82
2021/05/29 12:38:14;;;;;;;0.30;0.30;;;33.40;34.10;;;;;;6243421;22;20011;-80
2021/05/29 12:40:56;;;;;;;0.30;0.30;;;34.10;33.50;;;;;;6244060;23;20305;-81
2021/05/29 12:43:22;;;;;;;0.73;0.73;;;34.00;32.10;;;;;;6244088;23;20462;-81
2021/05/29 12:45:48;;;;;;;0.30;0.30;;;34.00;31.00;;;;;;6243914;22;20159;-82
2021/05/29 12:48:14;;;;;;;0.20;0.20;;;34.50;32.20;;;;;;6243043;23;20000;-81
2021/05/29 12:53:51;;;;;;;0.40;0.40;;;35.30;33.10;;;;;;6150590;23;20036;-81
2021/05/29 12:56:18;;;;;;;7.68;1.20;;;34.50;31.80;;;;;;6126054;23;20006;-83
2021/05/29 12:59:23;;;;;;;0.30;0.30;;;35.30;31.90;;;;;;6170240;23;20061;-84
2021/05/29 13:02:20;;;;;;;1.75;0.77;;;36.70;30.50;;;;;;6091890;23;20024;-83
2021/05/29 13:07:48;;;;;;;0.52;0.52;;;37.10;29.90;;;;;;6243276;22;20010;-81
2021/05/29 13:10:27;;;;;;;0.57;0.43;;;35.50;30.60;;;;;;6243551;22;20010;-80
2021/05/29 13:13:05;;;;;;;0.50;0.50;;;35.00;30.80;;;;;;6243561;22;20004;-82
2021/05/29 13:15:32;;;;;;;0.20;0.20;;;36.40;29.70;;;;;;6243383;22;20415;-83